Time;durP1;ratioP1;P1;durP2;ratioP2;P2;SDS_P1;SDS_P2;PMS_P1;PMS_P2;Temp;Humidity;BMP_temperature;BMP_pressure;BME280_temperature;BME280_humidity;BME280_pressure;Samples;Min_cycle;Max_cycle;Signal;HPM_P1;HPM_P2
2021/01/25 00:01:39;;;;;;;20.00;13.27;;;20.00;99.90;;;;;;5049750;28;20127;-30
2021/01/25 00:04:05;;;;;;;20.42;12.75;;;20.00;99.90;;;;;;5047533;28;20025;-31
2021/01/25 00:06:32;;;;;;;17.17;12.27;;;19.90;99.90;;;;;;5069829;28;20039;-31
2021/01/25 00:08:58;;;;;;;16.17;12.57;;;19.90;99.90;;;;;;5072354;28;20043;-30
2021/01/25 00:11:24;;;;;;;18.35;12.27;;;19.90;99.90;;;;;;5071862;28;20036;-31
2021/01/25 00:13:49;;;;;;;17.27;11.27;;;19.90;99.90;;;;;;5073032;28;20029;-31
2021/01/25 00:16:15;;;;;;;16.98;11.38;;;19.90;99.90;;;;;;5073438;28;20421;-30
2021/01/25 00:18:41;;;;;;;17.55;12.02;;;19.90;99.90;;;;;;5073221;28;20025;-30
2021/01/25 00:21:07;;;;;;;16.60;11.35;;;19.90;99.90;;;;;;5072853;28;20031;-30
2021/01/25 00:23:33;;;;;;;14.93;11.35;;;19.80;99.90;;;;;;5073061;28;20029;-30
2021/01/25 00:25:59;;;;;;;16.85;9.80;;;19.80;99.90;;;;;;5072928;28;20108;-30
2021/01/25 00:28:24;;;;;;;21.13;10.52;;;19.80;99.90;;;;;;5073638;28;20066;-31
2021/01/25 00:30:50;;;;;;;17.90;9.93;;;19.80;99.90;;;;;;5073338;28;20029;-30
2021/01/25 00:33:16;;;;;;;13.40;9.70;;;19.80;99.90;;;;;;5071698;28;20033;-31
2021/01/25 00:35:42;;;;;;;13.10;8.88;;;19.80;99.90;;;;;;5073243;28;20504;-31
2021/01/25 00:38:10;;;;;;;14.85;9.68;;;19.70;99.90;;;;;;5074486;28;20036;-31
2021/01/25 00:40:36;;;;;;;16.50;8.85;;;19.70;99.90;;;;;;5073537;28;20028;-30
2021/01/25 00:43:02;;;;;;;13.27;8.93;;;19.70;99.90;;;;;;5083604;28;20024;-30
2021/01/25 00:45:28;;;;;;;13.65;8.88;;;19.70;99.90;;;;;;5087775;28;20036;-30
2021/01/25 00:47:54;;;;;;;12.88;7.63;;;19.70;99.90;;;;;;5072748;28;20085;-30
2021/01/25 00:50:20;;;;;;;13.95;8.95;;;19.70;99.90;;;;;;5073373;28;20029;-30
2021/01/25 00:52:45;;;;;;;12.75;7.85;;;19.70;99.90;;;;;;5083621;28;20052;-30
2021/01/25 00:55:13;;;;;;;14.93;8.90;;;19.70;99.90;;;;;;5084776;28;20029;-30
2021/01/25 00:57:44;;;;;;;15.27;8.85;;;19.70;99.90;;;;;;5074460;28;20036;-30
2021/01/25 01:00:10;;;;;;;14.65;8.63;;;19.70;99.90;;;;;;5073081;28;20430;-31
2021/01/25 01:02:37;;;;;;;15.33;8.23;;;19.70;99.90;;;;;;5083561;28;20024;-30
2021/01/25 01:05:05;;;;;;;11.98;8.38;;;19.60;99.90;;;;;;5078798;28;20277;-30
2021/01/25 01:07:31;;;;;;;15.82;8.25;;;19.60;99.90;;;;;;5070176;28;20040;-30
2021/01/25 01:09:56;;;;;;;12.43;7.30;;;19.60;99.90;;;;;;5071359;28;20028;-30
2021/01/25 01:12:22;;;;;;;10.68;7.43;;;19.60;99.90;;;;;;5073333;28;20069;-30
2021/01/25 01:14:48;;;;;;;14.02;8.07;;;19.60;99.90;;;;;;5074055;28;20129;-31
2021/01/25 01:17:14;;;;;;;14.07;8.02;;;19.60;99.90;;;;;;5076613;28;20482;-30
2021/01/25 01:19:40;;;;;;;10.70;7.13;;;19.60;99.90;;;;;;5087373;28;20025;-30
2021/01/25 01:22:06;;;;;;;9.77;7.22;;;19.60;99.90;;;;;;5074272;28;20025;-30
2021/01/25 01:24:32;;;;;;;12.50;7.38;;;19.60;99.90;;;;;;5075998;28;20355;-30
2021/01/25 01:26:58;;;;;;;12.80;7.43;;;19.50;99.90;;;;;;5057797;28;20103;-30
2021/01/25 01:29:24;;;;;;;11.32;7.25;;;19.50;99.90;;;;;;5088413;28;20028;-30
2021/01/25 01:31:49;;;;;;;10.63;5.93;;;19.50;99.90;;;;;;5092544;28;20429;-30
2021/01/25 01:34:15;;;;;;;11.73;6.18;;;19.50;99.90;;;;;;5089049;28;20032;-30
2021/01/25 01:36:41;;;;;;;13.40;7.15;;;19.50;99.90;;;;;;5076326;28;20040;-30
2021/01/25 01:39:07;;;;;;;11.85;6.97;;;19.50;99.90;;;;;;5076576;28;20505;-30
2021/01/25 01:41:39;;;;;;;12.00;5.93;;;19.50;99.90;;;;;;5076354;28;20028;-30
2021/01/25 01:44:09;;;;;;;16.45;6.80;;;19.50;99.90;;;;;;5076754;28;20083;-31
2021/01/25 01:46:39;;;;;;;10.65;6.57;;;19.40;99.90;;;;;;5076502;28;20025;-31
2021/01/25 01:49:05;;;;;;;9.70;6.03;;;19.50;99.90;;;;;;5076875;28;20066;-31
2021/01/25 01:51:31;;;;;;;10.02;6.68;;;19.50;99.90;;;;;;5075826;28;20039;-31
2021/01/25 01:53:57;;;;;;;10.80;6.13;;;19.40;99.90;;;;;;5076475;28;20032;-31
2021/01/25 01:56:24;;;;;;;12.03;6.87;;;19.40;99.90;;;;;;5075998;28;20032;-31
2021/01/25 01:58:52;;;;;;;10.13;6.40;;;19.40;99.90;;;;;;5076214;28;20028;-31
2021/01/25 02:01:18;;;;;;;9.80;6.05;;;19.40;99.90;;;;;;5076278;28;20375;-30
2021/01/25 02:03:43;;;;;;;12.88;7.38;;;19.40;99.90;;;;;;5075903;28;20029;-33
2021/01/25 02:06:10;;;;;;;14.30;7.38;;;19.40;99.90;;;;;;5075666;28;20021;-31
2021/01/25 02:08:38;;;;;;;9.50;6.30;;;19.40;99.90;;;;;;5074854;28;20081;-31
2021/01/25 02:11:04;;;;;;;11.63;7.10;;;19.30;99.90;;;;;;5075613;28;20028;-31
2021/01/25 02:13:32;;;;;;;14.83;7.40;;;19.40;99.90;;;;;;5076414;28;20062;-31
2021/01/25 02:16:01;;;;;;;9.85;6.70;;;19.30;99.90;;;;;;5058233;28;20107;-31
2021/01/25 02:18:34;;;;;;;12.35;8.25;;;19.30;99.90;;;;;;5062443;28;20185;-31
2021/01/25 02:21:01;;;;;;;10.80;6.55;;;19.30;99.90;;;;;;5075623;28;20037;-31
2021/01/25 02:23:46;;;;;;;;;;;19.30;99.90;;;;;;5058129;28;20021;-31
2021/01/25 02:26:23;;;;;;;13.13;7.35;;;19.30;99.90;;;;;;5069504;28;20255;-31
2021/01/25 02:28:50;;;;;;;13.60;6.97;;;19.30;99.90;;;;;;5061682;28;20056;-31
2021/01/25 02:31:16;;;;;;;11.43;7.00;;;19.30;99.90;;;;;;5091196;28;20051;-31
2021/01/25 02:33:52;;;;;;;13.13;7.45;;;19.30;99.90;;;;;;5093532;28;20036;-30
2021/01/25 02:36:19;;;;;;;10.23;7.03;;;19.30;99.90;;;;;;5113995;28;20035;-30
2021/01/25 02:38:48;;;;;;;13.68;8.40;;;19.30;99.90;;;;;;5099766;28;20055;-30
2021/01/25 02:41:16;;;;;;;9.68;6.88;;;19.30;99.90;;;;;;5094804;28;20378;-30
2021/01/25 02:43:43;;;;;;;;;;;19.30;99.90;;;;;;5096112;28;20417;-30
2021/01/25 02:46:10;;;;;;;9.30;6.73;;;19.30;99.90;;;;;;5095432;28;19963;-30
2021/01/25 02:48:37;;;;;;;13.57;6.88;;;19.30;99.90;;;;;;5095006;28;20056;-30
2021/01/25 02:51:04;;;;;;;10.32;6.65;;;19.30;99.90;;;;;;5094936;28;20032;-30
2021/01/25 02:53:30;;;;;;;9.35;6.43;;;19.20;99.90;;;;;;5094967;28;20038;-30
2021/01/25 02:55:57;;;;;;;10.68;6.82;;;19.20;99.90;;;;;;5095197;28;20031;-30
2021/01/25 02:58:24;;;;;;;12.00;6.85;;;19.20;99.90;;;;;;5095199;28;20024;-30
2021/01/25 03:00:50;;;;;;;11.60;7.45;;;19.20;99.90;;;;;;5094619;28;20107;-30
2021/01/25 03:03:20;;;;;;;12.13;6.80;;;19.20;99.90;;;;;;5095436;28;20028;-30
2021/01/25 03:05:46;;;;;;;10.93;6.95;;;19.20;99.90;;;;;;5095196;28;20024;-30
2021/01/25 03:08:13;;;;;;;16.48;7.15;;;19.20;99.90;;;;;;5095100;28;20065;-30
2021/01/25 03:10:39;;;;;;;13.80;7.20;;;19.20;99.90;;;;;;5095096;28;20483;-30
2021/01/25 03:13:05;;;;;;;11.45;6.60;;;19.20;99.90;;;;;;5095177;28;20048;-30
2021/01/25 03:15:36;;;;;;;10.50;6.68;;;19.10;99.90;;;;;;5094867;28;20662;-30
2021/01/25 03:18:05;;;;;;;9.23;6.00;;;19.20;99.90;;;;;;5094411;28;20028;-30
2021/01/25 03:20:31;;;;;;;10.00;6.53;;;19.20;99.90;;;;;;5094402;28;20027;-30
2021/01/25 03:22:56;;;;;;;9.75;6.05;;;19.20;99.90;;;;;;5094640;28;20016;-30
2021/01/25 03:25:23;;;;;;;10.73;5.90;;;19.10;99.90;;;;;;5094653;28;20020;-30
2021/01/25 03:27:48;;;;;;;8.32;5.78;;;19.20;99.90;;;;;;5095078;28;20027;-30
2021/01/25 03:30:15;;;;;;;10.13;6.38;;;19.20;99.90;;;;;;5094588;28;20027;-30
2021/01/25 03:32:43;;;;;;;10.57;6.57;;;19.20;99.90;;;;;;5094984;28;20028;-30
2021/01/25 03:35:09;;;;;;;10.40;5.72;;;19.10;99.90;;;;;;5094308;28;20202;-30
2021/01/25 03:37:37;;;;;;;11.80;5.97;;;19.10;99.90;;;;;;5095315;28;20436;-30
2021/01/25 03:40:05;;;;;;;10.77;6.60;;;19.20;99.90;;;;;;5093728;28;20032;-30
2021/01/25 03:42:30;;;;;;;11.82;6.20;;;19.10;99.90;;;;;;5092936;28;20035;-30
2021/01/25 03:44:57;;;;;;;12.65;5.78;;;19.10;99.90;;;;;;5093424;28;20028;-30
2021/01/25 03:47:22;;;;;;;11.52;6.30;;;19.10;99.90;;;;;;5093630;28;20070;-30
2021/01/25 03:49:48;;;;;;;8.55;5.35;;;19.10;99.90;;;;;;5092216;28;20857;-30
2021/01/25 03:52:14;;;;;;;10.20;6.13;;;19.10;99.90;;;;;;5093442;28;20470;-30
2021/01/25 03:54:40;;;;;;;8.73;5.57;;;19.10;99.90;;;;;;5092113;28;20024;-30
2021/01/25 03:57:06;;;;;;;11.18;5.60;;;19.10;99.90;;;;;;5088166;28;20110;-30
2021/01/25 03:59:31;;;;;;;10.73;4.90;;;19.10;99.90;;;;;;5091958;28;20047;-30
2021/01/25 04:01:57;;;;;;;11.32;5.80;;;19.10;99.90;;;;;;5092537;28;20024;-30
2021/01/25 04:04:24;;;;;;;9.00;4.55;;;19.10;99.90;;;;;;5093596;28;20045;-31
2021/01/25 04:06:50;;;;;;;8.88;4.70;;;19.10;99.90;;;;;;5093695;28;20028;-30
2021/01/25 04:09:16;;;;;;;10.68;5.43;;;19.10;99.90;;;;;;5094074;28;20024;-30
2021/01/25 04:11:45;;;;;;;12.23;4.97;;;19.10;99.90;;;;;;5094186;28;20107;-30
2021/01/25 04:14:11;;;;;;;9.88;4.85;;;19.10;99.90;;;;;;5093321;28;20028;-30
2021/01/25 04:16:38;;;;;;;9.23;5.45;;;19.10;99.90;;;;;;5093795;28;20094;-30
2021/01/25 04:19:06;;;;;;;7.68;4.75;;;19.10;99.90;;;;;;5093353;28;20095;-30
2021/01/25 04:21:33;;;;;;;10.65;5.22;;;19.10;99.90;;;;;;5093883;28;20094;-30
2021/01/25 04:23:59;;;;;;;8.80;4.95;;;19.00;99.90;;;;;;5093487;28;20024;-30
2021/01/25 04:26:25;;;;;;;12.07;5.35;;;19.00;99.90;;;;;;5093315;28;20103;-30
2021/01/25 04:28:51;;;;;;;11.73;5.85;;;19.10;99.90;;;;;;5093149;28;20091;-30
2021/01/25 04:31:17;;;;;;;9.07;5.20;;;19.00;99.90;;;;;;5089987;28;20066;-30
2021/01/25 04:33:43;;;;;;;13.43;5.20;;;19.00;99.90;;;;;;5093711;28;20020;-30
2021/01/25 04:36:09;;;;;;;8.13;4.05;;;19.00;99.90;;;;;;5076754;28;20052;-31
2021/01/25 04:38:35;;;;;;;8.48;4.68;;;19.00;99.90;;;;;;5072832;28;20478;-30
2021/01/25 04:41:01;;;;;;;13.00;5.85;;;19.00;99.90;;;;;;5072698;28;20020;-30
2021/01/25 04:43:28;;;;;;;11.25;5.50;;;19.00;99.90;;;;;;5073028;28;20577;-31
2021/01/25 04:45:54;;;;;;;10.05;5.22;;;19.00;99.90;;;;;;5069280;28;20028;-30
2021/01/25 04:48:25;;;;;;;7.28;4.75;;;19.00;99.90;;;;;;5073171;28;20071;-30
2021/01/25 04:50:51;;;;;;;7.10;4.43;;;19.00;99.90;;;;;;5073307;28;20025;-30
2021/01/25 04:53:18;;;;;;;11.63;4.95;;;19.00;99.90;;;;;;5072346;28;20470;-30
2021/01/25 04:55:45;;;;;;;10.38;4.50;;;19.00;99.90;;;;;;5073349;28;20508;-30
2021/01/25 04:58:12;;;;;;;9.25;4.43;;;19.00;99.90;;;;;;5073388;28;20032;-30
2021/01/25 05:00:37;;;;;;;8.32;4.13;;;18.90;99.90;;;;;;5072280;28;20025;-30
2021/01/25 05:03:03;;;;;;;9.10;4.18;;;18.90;99.90;;;;;;5073021;28;20497;-30
2021/01/25 05:05:29;;;;;;;8.25;4.28;;;19.00;99.90;;;;;;5071874;28;20103;-30
2021/01/25 05:07:55;;;;;;;9.00;4.18;;;19.00;99.90;;;;;;5073173;28;20074;-30
2021/01/25 05:10:23;;;;;;;8.93;4.45;;;18.90;99.90;;;;;;5072135;28;20028;-30
2021/01/25 05:12:51;;;;;;;11.98;5.25;;;18.90;99.90;;;;;;5073152;28;20427;-30
2021/01/25 05:15:31;;;;;;;9.23;4.05;;;18.90;99.90;;;;;;5072493;28;20029;-30
2021/01/25 05:18:02;;;;;;;10.40;4.50;;;18.90;99.90;;;;;;5072484;28;20042;-30
2021/01/25 05:20:29;;;;;;;10.77;4.85;;;18.90;99.90;;;;;;5072698;28;20071;-30
2021/01/25 05:22:56;;;;;;;10.00;5.13;;;18.90;99.90;;;;;;5072620;28;20780;-30
2021/01/25 05:25:34;;;;;;;10.35;4.35;;;18.90;99.90;;;;;;5072437;28;20068;-30
2021/01/25 05:28:01;;;;;;;7.32;4.55;;;18.90;99.90;;;;;;5052977;28;20020;-30
2021/01/25 05:30:28;;;;;;;8.23;4.13;;;18.90;99.90;;;;;;5072499;28;20024;-30
2021/01/25 05:32:56;;;;;;;8.10;4.45;;;18.90;99.90;;;;;;5054032;28;20115;-30
2021/01/25 05:35:26;;;;;;;8.13;4.38;;;18.80;99.90;;;;;;5071472;28;20449;-30
2021/01/25 05:38:04;;;;;;;9.20;3.90;;;18.80;99.90;;;;;;5072431;28;20355;-30
2021/01/25 05:40:34;;;;;;;8.98;4.25;;;18.80;99.90;;;;;;5072502;28;20486;-30
2021/01/25 05:43:01;;;;;;;9.32;4.50;;;18.80;99.90;;;;;;5071759;28;20377;-30
2021/01/25 05:45:30;;;;;;;7.88;4.32;;;18.80;99.90;;;;;;5071693;28;20039;-30
2021/01/25 05:47:58;;;;;;;11.45;4.32;;;18.80;99.90;;;;;;5072708;28;20363;-30
2021/01/25 05:50:31;;;;;;;8.55;3.97;;;18.80;99.90;;;;;;5072098;28;20024;-30
2021/01/25 05:53:08;;;;;;;7.05;4.05;;;18.80;99.90;;;;;;5072194;28;20020;-30
2021/01/25 05:55:34;;;;;;;6.70;3.60;;;18.80;99.90;;;;;;5069200;28;20421;-29
2021/01/25 05:58:01;;;;;;;8.57;4.80;;;18.80;99.90;;;;;;5071605;28;20055;-30
2021/01/25 06:00:28;;;;;;;10.40;4.53;;;18.80;99.90;;;;;;5070865;28;20032;-30
2021/01/25 06:02:55;;;;;;;9.52;3.55;;;18.80;99.90;;;;;;5072666;28;20031;-30
2021/01/25 06:05:25;;;;;;;9.20;3.92;;;18.80;99.90;;;;;;5070598;28;20375;-30
2021/01/25 06:07:52;;;;;;;8.60;3.55;;;18.80;99.90;;;;;;5071834;28;20351;-30
2021/01/25 06:10:33;;;;;;;11.52;4.15;;;18.80;99.90;;;;;;5072227;28;20383;-30
2021/01/25 06:13:05;;;;;;;7.75;3.80;;;18.70;99.90;;;;;;5072544;28;20033;-30
2021/01/25 06:15:36;;;;;;;8.52;3.95;;;18.70;99.90;;;;;;5071336;28;20020;-30
2021/01/25 06:18:02;;;;;;;10.45;3.97;;;18.70;99.90;;;;;;5071708;28;20021;-30
2021/01/25 06:20:31;;;;;;;14.50;4.25;;;18.70;99.90;;;;;;5075038;28;20095;-30
2021/01/25 06:22:57;;;;;;;13.43;5.40;;;18.70;99.90;;;;;;5073786;28;20103;-30
2021/01/25 06:25:25;;;;;;;7.43;3.78;;;18.70;99.90;;;;;;5073447;28;20060;-42
2021/01/25 06:27:55;;;;;;;9.70;4.30;;;18.60;99.90;;;;;;5074244;28;20021;-41
2021/01/25 06:30:23;;;;;;;14.52;5.70;;;18.60;99.90;;;;;;5070787;28;20036;-42
2021/01/25 06:32:50;;;;;;;12.50;7.50;;;18.60;99.90;;;;;;5069700;28;20051;-42
2021/01/25 06:35:17;;;;;;;16.73;8.88;;;18.60;99.90;;;;;;5081529;28;20123;-42
2021/01/25 06:37:49;;;;;;;16.33;10.25;;;18.60;99.90;;;;;;5092209;28;20596;-42
2021/01/25 06:40:23;;;;;;;16.05;11.32;;;18.60;99.90;;;;;;5077331;28;20851;-41
2021/01/25 06:42:49;;;;;;;21.17;12.80;;;18.60;99.90;;;;;;5093132;28;20164;-41
2021/01/25 06:45:15;;;;;;;17.75;12.23;;;18.60;99.90;;;;;;5088195;28;20024;-41
2021/01/25 06:47:41;;;;;;;19.17;10.57;;;18.60;99.90;;;;;;5085700;28;20028;-41
2021/01/25 06:50:08;;;;;;;14.43;10.15;;;18.60;99.90;;;;;;5094331;28;20462;-42
2021/01/25 06:52:39;;;;;;;16.33;10.77;;;18.60;99.90;;;;;;5093537;28;20112;-41
2021/01/25 06:55:07;;;;;;;17.08;10.80;;;18.60;99.90;;;;;;5093615;28;20051;-41
2021/01/25 06:57:34;;;;;;;18.38;12.55;;;18.60;99.90;;;;;;5091767;28;20016;-41
2021/01/25 07:00:11;;;;;;;18.27;12.23;;;18.60;99.90;;;;;;5091256;28;20023;-41
2021/01/25 07:02:59;;;;;;;24.10;13.30;;;18.60;99.90;;;;;;5093008;28;20024;-42
2021/01/25 07:05:27;;;;;;;17.02;11.95;;;18.60;99.90;;;;;;5089921;28;20032;-45
2021/01/25 07:08:15;;;;;;;19.73;13.98;;;18.70;99.90;;;;;;5097047;28;20023;-42
2021/01/25 07:11:07;;;;;;;18.60;12.90;;;18.70;99.90;;;;;;5113674;28;20019;-43
2021/01/25 07:13:36;;;;;;;20.25;13.00;;;18.70;99.90;;;;;;5108946;28;20176;-43
2021/01/25 07:16:03;;;;;;;18.90;12.48;;;18.70;99.90;;;;;;5095206;28;20426;-42
2021/01/25 07:18:30;;;;;;;19.08;11.98;;;18.70;99.90;;;;;;5088352;28;20127;-45
2021/01/25 07:20:58;;;;;;;14.65;11.95;;;18.70;99.90;;;;;;5078395;28;20028;-45
2021/01/25 07:23:26;;;;;;;20.80;11.85;;;18.80;99.90;;;;;;5091612;28;20032;-43
2021/01/25 07:26:02;;;;;;;19.20;12.75;;;18.80;99.90;;;;;;5092760;28;20039;-44
2021/01/25 07:28:31;;;;;;;16.23;11.20;;;18.80;99.90;;;;;;5092617;28;20020;-44
2021/01/25 07:30:58;;;;;;;19.30;11.90;;;18.80;99.90;;;;;;5091673;28;20016;-44
2021/01/25 07:33:25;;;;;;;17.60;11.25;;;18.80;99.90;;;;;;5093000;28;20393;-44
2021/01/25 07:35:55;;;;;;;18.50;11.50;;;18.80;99.90;;;;;;5092547;28;20055;-43
2021/01/25 07:38:22;;;;;;;496.90;395.35;;;18.90;99.90;;;;;;5093192;28;20031;-44
2021/01/25 07:40:49;;;;;;;293.30;221.70;;;18.90;99.90;;;;;;5092970;28;20055;-44
2021/01/25 07:43:17;;;;;;;398.33;326.93;;;18.90;99.90;;;;;;5092870;28;20458;-44
2021/01/25 07:45:44;;;;;;;185.93;141.23;;;18.90;99.90;;;;;;5093320;28;20906;-44
2021/01/25 07:48:14;;;;;;;146.85;108.00;;;18.80;99.90;;;;;;5092889;28;20760;-44
2021/01/25 07:50:40;;;;;;;98.80;70.20;;;18.80;99.90;;;;;;5092994;28;20024;-44
2021/01/25 07:53:07;;;;;;;76.18;54.15;;;18.80;99.90;;;;;;5092880;28;20031;-44
2021/01/25 07:55:39;;;;;;;54.60;41.72;;;18.80;99.90;;;;;;5092744;28;20102;-44
2021/01/25 07:58:07;;;;;;;61.03;41.97;;;18.80;99.90;;;;;;5092846;28;20039;-44
2021/01/25 08:00:34;;;;;;;54.35;35.85;;;18.80;99.90;;;;;;5092588;28;20035;-44
2021/01/25 08:03:15;;;;;;;49.70;34.25;;;18.80;99.90;;;;;;5092540;28;20046;-44
2021/01/25 08:05:41;;;;;;;36.47;25.63;;;18.80;99.90;;;;;;5093079;28;20028;-44
2021/01/25 08:08:10;;;;;;;37.08;23.85;;;18.80;99.90;;;;;;5092623;28;20028;-44
2021/01/25 08:10:36;;;;;;;34.05;23.92;;;18.80;99.90;;;;;;5092144;28;20024;-44
2021/01/25 08:13:15;;;;;;;35.47;23.48;;;18.90;99.90;;;;;;5092371;28;20024;-44
2021/01/25 08:16:02;;;;;;;36.33;21.73;;;18.90;99.90;;;;;;5092724;28;20035;-44
2021/01/25 08:18:52;;;;;;;151.32;126.15;;;18.90;99.90;;;;;;5091463;28;20040;-44
2021/01/25 08:21:26;;;;;;;144.32;117.90;;;19.00;99.90;;;;;;5092395;28;20028;-44
2021/01/25 08:23:54;;;;;;;73.40;57.70;;;19.10;99.90;;;;;;5092413;28;20088;-44
2021/01/25 08:26:27;;;;;;;;;;;19.10;99.90;;;;;;5092970;28;20016;-44
2021/01/25 08:29:02;;;;;;;50.30;38.65;;;19.20;99.90;;;;;;5092611;28;19904;-44
2021/01/25 08:31:38;;;;;;;49.53;37.72;;;19.20;99.90;;;;;;5092431;28;20040;-44
2021/01/25 08:34:17;;;;;;;46.42;34.45;;;19.20;99.90;;;;;;5092549;28;20024;-44
2021/01/25 08:36:43;;;;;;;31.95;24.88;;;19.30;99.90;;;;;;5092278;28;20032;-44
2021/01/25 08:39:15;;;;;;;33.15;22.33;;;19.20;99.90;;;;;;5085236;28;20039;-44
2021/01/25 08:41:54;;;;;;;26.15;19.45;;;19.30;99.90;;;;;;5077510;28;20486;-44
2021/01/25 08:44:21;;;;;;;268.42;204.88;;;19.30;99.90;;;;;;5071826;28;20075;-44
2021/01/25 08:46:49;;;;;;;159.63;128.15;;;19.30;99.90;;;;;;5074469;28;20043;-44
2021/01/25 08:49:31;;;;;;;71.38;57.33;;;19.30;99.90;;;;;;5096296;28;20369;-44
2021/01/25 08:51:59;;;;;;;61.03;48.72;;;19.30;99.90;;;;;;5097139;28;20136;-44
2021/01/25 08:54:31;;;;;;;55.38;41.30;;;19.30;99.90;;;;;;5099581;28;20020;-43
2021/01/25 08:56:58;;;;;;;48.60;34.08;;;19.30;99.90;;;;;;5100322;28;20493;-43
2021/01/25 08:59:33;;;;;;;39.97;30.92;;;19.30;99.90;;;;;;5105556;28;20039;-43
2021/01/25 09:02:12;;;;;;;37.20;29.48;;;19.40;99.90;;;;;;5097006;28;20414;-43
2021/01/25 09:04:38;;;;;;;34.80;21.48;;;19.40;99.90;;;;;;5091480;28;20032;-43
2021/01/25 09:07:14;;;;;;;33.70;20.65;;;19.40;99.90;;;;;;5091107;28;20088;-43
2021/01/25 09:09:40;;;;;;;24.92;15.07;;;19.50;99.90;;;;;;5091670;28;20098;-43
2021/01/25 09:12:06;;;;;;;17.30;14.20;;;19.50;99.90;;;;;;5091643;28;20023;-42
2021/01/25 09:14:33;;;;;;;18.38;13.27;;;19.50;99.90;;;;;;5093431;28;20032;-42
2021/01/25 09:16:59;;;;;;;25.67;14.68;;;19.60;99.90;;;;;;5112107;28;20084;-43
2021/01/25 09:19:25;;;;;;;27.35;13.52;;;19.50;99.90;;;;;;5096492;28;20027;-43
2021/01/25 09:21:50;;;;;;;19.05;9.43;;;19.60;99.90;;;;;;5091803;28;20394;-43
2021/01/25 09:24:16;;;;;;;16.85;6.80;;;19.60;99.90;;;;;;5091597;28;20056;-43
2021/01/25 09:26:42;;;;;;;17.83;7.53;;;19.60;99.90;;;;;;5091711;28;20086;-43
2021/01/25 09:29:08;;;;;;;19.80;7.97;;;19.60;99.90;;;;;;5091671;28;20032;-43
2021/01/25 09:31:34;;;;;;;14.75;5.45;;;19.60;99.90;;;;;;5091686;28;20105;-43
2021/01/25 09:34:00;;;;;;;13.73;3.53;;;19.60;99.90;;;;;;5091633;28;20115;-43
2021/01/25 09:36:26;;;;;;;13.43;4.10;;;19.50;99.90;;;;;;5091523;28;20120;-42
2021/01/25 09:38:52;;;;;;;21.42;11.57;;;19.60;99.90;;;;;;5090807;28;20102;-43
2021/01/25 09:41:18;;;;;;;18.25;10.55;;;19.70;99.90;;;;;;5089017;28;20028;-43
2021/01/25 09:43:44;;;;;;;16.33;7.03;;;19.70;99.90;;;;;;5091639;28;20016;-43
2021/01/25 09:46:10;;;;;;;16.52;5.50;;;19.70;99.90;;;;;;5091376;28;20101;-43
2021/01/25 09:48:36;;;;;;;14.75;3.75;;;19.70;99.90;;;;;;5072732;28;20492;-43
2021/01/25 09:51:02;;;;;;;13.20;3.25;;;19.70;99.90;;;;;;5091247;28;20028;-43
2021/01/25 09:53:28;;;;;;;10.60;3.00;;;19.70;99.90;;;;;;5092566;28;20786;-43
2021/01/25 09:55:55;;;;;;;10.40;2.72;;;19.80;99.90;;;;;;5095572;28;20085;-43
2021/01/25 09:58:22;;;;;;;8.43;2.40;;;19.70;99.90;;;;;;5095479;28;20096;-43
2021/01/25 10:00:49;;;;;;;6.45;2.47;;;19.90;99.90;;;;;;5087839;28;20474;-43
2021/01/25 10:03:17;;;;;;;7.10;1.77;;;19.80;99.90;;;;;;5078691;28;20363;-42
2021/01/25 10:05:43;;;;;;;12.10;2.22;;;19.90;99.90;;;;;;5075257;28;20162;-43
2021/01/25 10:08:09;;;;;;;7.65;2.05;;;20.00;99.90;;;;;;5074656;28;20526;-42
2021/01/25 10:10:35;;;;;;;7.45;1.92;;;20.10;99.90;;;;;;5074832;28;20021;-42
2021/01/25 10:13:01;;;;;;;9.30;1.70;;;20.00;99.90;;;;;;5074958;28;20043;-35
2021/01/25 10:15:27;;;;;;;8.60;2.65;;;20.10;99.90;;;;;;5100263;28;20042;-35
2021/01/25 10:17:52;;;;;;;9.80;2.28;;;20.10;99.90;;;;;;5105612;28;20036;-35
2021/01/25 10:20:18;;;;;;;6.50;1.50;;;20.20;99.90;;;;;;5096858;28;20380;-35
2021/01/25 10:22:44;;;;;;;4.90;1.63;;;20.20;99.90;;;;;;5109900;28;20019;-36
2021/01/25 10:25:11;;;;;;;6.05;1.88;;;20.20;99.90;;;;;;5098667;28;20031;-35
2021/01/25 10:27:38;;;;;;;6.50;1.30;;;20.30;99.90;;;;;;5103705;28;20103;-35
2021/01/25 10:30:07;;;;;;;4.63;1.70;;;20.40;99.90;;;;;;5096539;28;20028;-36
2021/01/25 10:32:32;;;;;;;7.80;1.65;;;20.30;99.90;;;;;;5096401;28;20096;-36
2021/01/25 10:34:59;;;;;;;5.38;1.20;;;20.40;99.90;;;;;;5096241;28;20490;-36
2021/01/25 10:37:26;;;;;;;6.50;1.63;;;20.50;99.90;;;;;;5096237;28;20117;-35
2021/01/25 10:39:52;;;;;;;7.25;1.80;;;20.60;99.90;;;;;;5096193;28;20035;-35
2021/01/25 10:42:17;;;;;;;3.22;1.27;;;20.50;99.90;;;;;;5096164;28;20028;-35
2021/01/25 10:44:43;;;;;;;5.22;1.38;;;20.40;99.90;;;;;;5096019;28;20024;-36
2021/01/25 10:47:13;;;;;;;4.55;1.20;;;20.30;99.90;;;;;;5095419;28;20469;-36
2021/01/25 10:49:39;;;;;;;7.78;1.23;;;20.10;99.90;;;;;;5096061;28;20052;-36
2021/01/25 10:52:05;;;;;;;6.30;1.38;;;20.10;99.90;;;;;;5096119;28;20047;-35
2021/01/25 10:54:30;;;;;;;4.35;1.40;;;20.20;99.90;;;;;;5096169;28;20028;-36
2021/01/25 10:56:56;;;;;;;5.18;0.85;;;20.30;99.90;;;;;;5096268;28;20384;-36
2021/01/25 10:59:22;;;;;;;5.03;1.92;;;20.20;99.90;;;;;;5095824;28;20023;-35
2021/01/25 11:01:48;;;;;;;8.68;1.20;;;20.20;99.90;;;;;;5095922;28;20496;-35
2021/01/25 11:04:14;;;;;;;5.32;1.52;;;20.20;99.90;;;;;;5095384;28;20108;-35
2021/01/25 11:06:40;;;;;;;3.28;1.20;;;20.20;99.90;;;;;;5095832;28;20020;-35
2021/01/25 11:09:06;;;;;;;5.10;1.83;;;20.20;99.90;;;;;;5095631;28;20033;-36
2021/01/25 11:11:32;;;;;;;7.53;1.13;;;20.30;99.90;;;;;;5095706;28;20125;-36
2021/01/25 11:13:58;;;;;;;5.85;1.40;;;20.20;99.90;;;;;;5077369;28;20031;-36
2021/01/25 11:16:24;;;;;;;8.13;1.25;;;20.20;99.90;;;;;;5095395;28;20099;-36
2021/01/25 11:18:50;;;;;;;6.15;1.20;;;20.30;99.90;;;;;;5095066;28;20575;-37
2021/01/25 11:21:16;;;;;;;5.63;1.25;;;20.20;99.90;;;;;;5095483;28;20051;-36
2021/01/25 11:23:42;;;;;;;6.88;1.42;;;20.30;99.90;;;;;;5095468;28;20043;-36
2021/01/25 11:26:10;;;;;;;6.50;1.70;;;20.30;99.90;;;;;;5095374;28;20028;-36
2021/01/25 11:28:36;;;;;;;4.22;0.98;;;20.30;99.90;;;;;;5095782;28;20054;-35
2021/01/25 11:31:02;;;;;;;9.10;4.53;;;20.40;99.90;;;;;;5095658;28;20064;-37
2021/01/25 11:33:28;;;;;;;11.98;4.80;;;20.40;99.90;;;;;;5095094;28;20024;-36
2021/01/25 11:35:53;;;;;;;6.93;3.15;;;20.40;99.90;;;;;;5081017;28;20502;-35
2021/01/25 11:38:20;;;;;;;5.80;3.58;;;20.50;99.90;;;;;;5074753;28;20103;-37
2021/01/25 11:40:46;;;;;;;8.23;3.05;;;20.50;99.90;;;;;;5074974;28;20024;-35
2021/01/25 11:43:12;;;;;;;4.97;2.38;;;20.60;99.90;;;;;;5074811;28;20043;-35
2021/01/25 11:45:38;;;;;;;12.23;3.42;;;20.60;99.90;;;;;;5075263;28;20035;-35
2021/01/25 11:48:05;;;;;;;6.60;2.35;;;20.70;99.90;;;;;;5073914;28;20020;-36
2021/01/25 11:50:31;;;;;;;3.13;1.60;;;20.70;99.90;;;;;;5074767;28;20032;-36
2021/01/25 11:52:57;;;;;;;6.07;2.03;;;20.80;99.90;;;;;;5074547;28;20024;-35
2021/01/25 11:55:23;;;;;;;7.03;1.73;;;20.70;99.90;;;;;;5074377;28;20033;-35
2021/01/25 11:57:49;;;;;;;2.47;1.38;;;20.70;99.90;;;;;;5074539;28;20037;-36
2021/01/25 12:00:15;;;;;;;5.00;1.75;;;20.70;99.90;;;;;;5074184;28;20383;-35
2021/01/25 12:02:41;;;;;;;5.65;1.95;;;20.70;99.90;;;;;;5074036;28;20490;-35
2021/01/25 12:05:08;;;;;;;4.65;1.60;;;20.70;99.90;;;;;;5074015;28;20050;-36
2021/01/25 12:07:34;;;;;;;5.75;1.75;;;20.70;99.90;;;;;;5074459;28;20019;-36
2021/01/25 12:10:00;;;;;;;4.43;1.67;;;20.80;99.90;;;;;;5074148;28;20024;-35
2021/01/25 12:12:27;;;;;;;5.20;1.48;;;20.70;99.90;;;;;;5070045;28;20025;-37
2021/01/25 12:14:52;;;;;;;4.45;1.50;;;20.70;99.90;;;;;;5071264;28;20024;-36
2021/01/25 12:17:18;;;;;;;2.47;1.00;;;20.80;99.90;;;;;;5072867;28;20366;-36
2021/01/25 12:19:44;;;;;;;4.07;1.38;;;20.70;99.90;;;;;;5073798;28;20483;-36
2021/01/25 12:22:10;;;;;;;7.38;1.92;;;20.70;99.90;;;;;;5073787;28;20424;-36
2021/01/25 12:24:36;;;;;;;2.85;1.00;;;21.00;99.90;;;;;;5073650;28;20025;-36
2021/01/25 12:27:02;;;;;;;19.20;10.82;;;21.00;99.90;;;;;;5055175;28;20028;-36
2021/01/25 12:29:27;;;;;;;21.52;16.80;;;21.00;99.90;;;;;;5053916;28;20021;-35
2021/01/25 12:31:53;;;;;;;15.88;10.50;;;21.10;99.90;;;;;;5071269;28;20029;-36
2021/01/25 12:34:19;;;;;;;22.15;15.27;;;21.20;99.90;;;;;;5074499;28;20079;-36
2021/01/25 12:36:45;;;;;;;22.23;17.33;;;21.30;99.90;;;;;;5094042;28;20024;-36
2021/01/25 12:39:11;;;;;;;19.33;16.02;;;21.40;99.90;;;;;;5093848;28;20028;-36
2021/01/25 12:41:37;;;;;;;19.02;14.85;;;21.40;99.90;;;;;;5094364;28;20024;-36